Aeroporto :
LOGIN :

Iscrizione | Disclaimer

   EN    FR    IT 

 










Sommario :    VFR   VFR Marginale   IFR   IFR Intensivo   IFR Molto Intensivo
Visibilità : 
Base nubi : 
>= 8 km
>= 3000ft
5 / 8 km
1000 / 3000 ft
1500m / 5 km
500 / 1000 ft
800 / 1500m
200 / 500 ft
< 800m
< 200 ft
Simboli :   Temporali  Nebbia  Neve Forte  Precipitazioni Forti  Vento > 20 kt
SIGMETs :   Varie  Temporali  Ghiacco  Turbolenza  Onda orograficha  Ceneri Vulcaniche






- Altitudine del aeroporto : 650 ft
- Codice IATA : ZJI


LSZL - Locarno

ULTIMO METAR :
  • 010150Z AUTO VRB01KT 9999NDV FEW036 BKN041 05/02 Q1023 RMK

METARs OBSOLETI :
  • 010120Z AUTO 00000KT 9999NDV BKN039 05/01 Q1023 RMK
  • 010050Z AUTO 06001KT 9999NDV BKN036 05/01 Q1023 RMK
  • 010020Z AUTO 10002KT 9999NDV BKN037 04/02 Q1023 RMK
  • 312350Z AUTO 07001KT 9999NDV BKN034 05/01 Q1024 RMK
  • 312320Z AUTO 00000KT 9999NDV SCT037 BKN046 BKN059 04/02 Q1024 RMK

TAF TAF LSZL
Valido dal 31 a 18 ore il 01 a 03 ore UTC


311725Z 3118/0103 VRB03KT 9999 SCT050



MetMap, La meteo Aeronautica in un colpo d'occhio ! - Copyright ORBIFLY Dicembre 2007 - Disclaimer

ORBIFLY MET'MAP TEAM :

Programmazione e sviluppo : Alexandra Zaïnal
Concezione : Baudouin d'Aumeries
Aiuto per la programmazione : Marc-Olivier Méhu
Supporto tecnico e logistico : Manuel Goepfert
Aiuto per la traduzione : Arnaldo La Scala

Contatto : metmap@orbifly.com




FONTI E CREDITI :

   NOAA